KAFW/AFW METAR and TAF weather

Enter ICAO airport designator
Station Type Date Time Source
KAFW METAR 2021/07/27 20:53 UTC NOAA

KAFW 272053Z 14004KT 10SM FEW060 FEW110 SCT200 SCT250 37/19 A2995 RMK AO2 SLPNO TCU DSNT N-NE SLPNO T03720194


Station Type Date Time Source
KAFW Decoded METAR 2021/07/27 20:53 UTC NOAA

FORT WORTH ALLIANCE AIRPORT, TX, United States (KAFW) 32-59N 097-19W 233M
Jul 27, 2021 - 04:53 PM EDT / 2021.07.27 2053 UTC
Wind: from the SE (140 degrees) at 5 MPH (4 KT):0
Visibility: 10 mile(s):0
Sky conditions: partly cloudy
Weather: Towering cumulus clouds observed
Temperature: 99.0 F (37.2 C)
Heat index: 103.6 F (39.8 C):1
Dew Point: 66.9 F (19.4 C)
Relative Humidity: 35%
Pressure (altimeter): 29.95 in. Hg (1014 hPa)
ob: KAFW 272053Z 14004KT 10SM FEW060 FEW110 SCT200 SCT250 37/19 A2995 RMK AO2 SLPNO TCU DSNT N-NE SLPNO T03720194
cycle: 21

Station Type Date Time Source
KAFW TAF 2021/07/27 18:42 UTC NOAA

TAF KAFW 271740Z 2718/2818 11004KT P6SM SCT090 BKN250
FM272100 12008KT P6SM VCTS SCT060CB
FM280200 12007KT P6SM SCT150

Example: see airport list